createdAt,value
2023-02-14T00:00:09.126Z,99313.75
2023-02-14T00:02:17.195Z,99314.63
2023-02-14T00:04:25.077Z,99300.66
2023-02-14T00:06:35.674Z,99305.06
2023-02-14T00:08:47.076Z,99294.63
2023-02-14T00:10:55.079Z,99296.31
2023-02-14T00:13:02.917Z,99294.59
2023-02-14T00:15:25.609Z,99295.44
2023-02-14T00:17:33.622Z,99292.88
2023-02-14T00:19:41.710Z,99291.09
2023-02-14T00:21:50.210Z,99294.53
2023-02-14T00:24:01.065Z,99293.66
2023-02-14T00:26:09.170Z,99304.09
2023-02-14T00:28:17.851Z,99297.19
2023-02-14T00:30:26.053Z,99295.44
2023-02-14T00:32:34.454Z,99304.13
2023-02-14T00:34:46.985Z,99299.81
2023-02-14T00:36:55.252Z,99298.91
2023-02-14T00:39:07.100Z,99301.53
2023-02-14T00:41:19.403Z,99299.72
2023-02-14T00:43:27.796Z,99296.25
2023-02-14T00:45:35.838Z,99295.34
2023-02-14T00:47:43.961Z,99293.63
2023-02-14T00:49:52.715Z,99298.00
2023-02-14T00:52:00.720Z,99304.91
2023-02-14T00:54:11.414Z,99304.88
2023-02-14T00:56:20.190Z,99306.59
2023-02-14T00:58:28.401Z,99297.09
2023-02-14T01:00:36.858Z,99302.34
2023-02-14T01:02:44.946Z,99301.50
2023-02-14T01:04:52.868Z,99300.59
2023-02-14T01:07:02.012Z,99294.53
2023-02-14T01:09:12.704Z,99299.69
2023-02-14T01:11:23.067Z,99299.66
2023-02-14T01:13:30.880Z,99300.56
2023-02-14T01:15:42.566Z,99303.16
2023-02-14T01:17:50.642Z,99304.03
2023-02-14T01:19:58.765Z,99300.53
2023-02-14T01:22:06.756Z,99298.78
2023-02-14T01:24:18.122Z,99297.03
2023-02-14T01:26:27.666Z,99298.78
2023-02-14T01:28:35.686Z,99297.03
2023-02-14T01:30:45.936Z,99291.88
2023-02-14T01:32:53.932Z,99296.19
2023-02-14T01:35:02.037Z,99290.97
2023-02-14T01:37:10.332Z,99293.63
2023-02-14T01:39:22.265Z,99291.00
2023-02-14T01:41:32.767Z,99287.47
2023-02-14T01:44:03.568Z,99293.59
2023-02-14T01:46:12.784Z,99289.22
2023-02-14T01:48:24.057Z,99281.41
2023-02-14T01:50:40.023Z,99289.19
2023-02-14T01:52:52.530Z,99283.91
2023-02-14T01:55:09.044Z,99288.28
2023-02-14T01:57:20.832Z,99284.75
2023-02-14T01:59:33.658Z,99290.88
2023-02-14T02:01:43.120Z,99290.00
2023-02-14T02:03:54.980Z,99289.13
2023-02-14T02:06:08.804Z,99283.00
2023-02-14T02:08:17.396Z,99288.22
2023-02-14T02:10:30.761Z,99284.75
2023-02-14T02:12:39.153Z,99280.41
2023-02-14T02:14:48.876Z,99276.91
2023-02-14T02:17:13.708Z,99283.00
2023-02-14T02:20:05.733Z,99278.63
2023-02-14T02:22:40.353Z,99277.81
2023-02-14T02:24:57.545Z,99269.97
2023-02-14T02:27:34.372Z,99263.00
2023-02-14T02:30:12.406Z,99266.41
2023-02-14T02:32:50.379Z,99266.38
2023-02-14T02:35:18.562Z,99281.13
2023-02-14T02:37:39.065Z,99270.69
2023-02-14T02:40:06.075Z,99283.75
2023-02-14T02:42:24.495Z,99274.13
2023-02-14T02:44:44.155Z,99277.63
2023-02-14T02:47:04.284Z,99269.81
2023-02-14T02:49:40.548Z,99272.47
2023-02-14T02:52:13.965Z,99275.97
2023-02-14T02:54:30.792Z,99271.63
2023-02-14T02:56:49.954Z,99260.25
2023-02-14T02:59:01.950Z,99258.56
2023-02-14T03:01:14.962Z,99252.56
2023-02-14T03:03:38.614Z,99255.13
2023-02-14T03:05:47.001Z,99259.41
2023-02-14T03:07:57.565Z,99265.50
2023-02-14T03:10:12.473Z,99262.94
2023-02-14T03:12:38.469Z,99266.41
2023-02-14T03:14:53.116Z,99261.25
2023-02-14T03:17:08.486Z,99262.91
2023-02-14T03:19:57.178Z,99270.69
2023-02-14T03:22:15.346Z,99267.19
2023-02-14T03:24:45.383Z,99267.22
2023-02-14T03:27:00.270Z,99264.63
2023-02-14T03:29:16.379Z,99270.72
2023-02-14T03:31:31.554Z,99275.88
2023-02-14T03:33:49.673Z,99273.97
2023-02-14T03:36:03.173Z,99276.50
2023-02-14T03:38:15.623Z,99270.53
2023-02-14T03:40:31.662Z,99269.66
2023-02-14T03:42:45.184Z,99264.44
2023-02-14T03:44:56.817Z,99264.50
2023-02-14T03:47:10.586Z,99270.50
2023-02-14T03:49:24.838Z,99273.00
2023-02-14T03:51:34.921Z,99266.72
2023-02-14T03:53:47.492Z,99271.81
2023-02-14T03:56:05.529Z,99265.63
2023-02-14T03:58:19.833Z,99269.25
2023-02-14T04:00:28.345Z,99264.19
2023-02-14T04:02:40.839Z,99261.72
2023-02-14T04:04:51.363Z,99258.97
2023-02-14T04:06:59.192Z,99259.84
2023-02-14T04:09:07.357Z,99258.16
2023-02-14T04:11:18.087Z,99251.19
2023-02-14T04:13:26.018Z,99258.13
2023-02-14T04:15:33.883Z,99252.00
2023-02-14T04:17:54.332Z,99256.31
2023-02-14T04:20:02.156Z,99254.53
2023-02-14T04:22:10.221Z,99252.75
2023-02-14T04:24:18.243Z,99257.19
2023-02-14T04:26:28.604Z,99251.09
2023-02-14T04:28:36.936Z,99243.34
2023-02-14T04:30:44.944Z,99247.72
2023-02-14T04:32:53.189Z,99243.34
2023-02-14T04:35:01.041Z,99248.41
2023-02-14T04:37:09.714Z,99238.81
2023-02-14T04:39:17.709Z,99248.31
2023-02-14T04:41:28.298Z,99247.50
2023-02-14T04:43:36.131Z,99245.72
2023-02-14T04:45:44.194Z,99241.41
2023-02-14T04:47:52.245Z,99241.50
2023-02-14T04:50:00.543Z,99244.00
2023-02-14T04:52:09.564Z,99248.31
2023-02-14T04:54:17.515Z,99244.16
2023-02-14T04:56:28.707Z,99237.94
2023-02-14T04:58:39.047Z,99239.63
2023-02-14T05:00:47.073Z,99241.38
2023-02-14T05:02:54.897Z,99245.72
2023-02-14T05:05:02.763Z,99244.88
2023-02-14T05:07:10.843Z,99242.22
2023-02-14T05:09:19.432Z,99246.47
2023-02-14T05:11:30.588Z,99249.94
2023-02-14T05:13:38.486Z,99246.63
2023-02-14T05:15:47.768Z,99244.91
2023-02-14T05:17:55.680Z,99250.88
2023-02-14T05:20:03.670Z,99246.63
2023-02-14T05:22:11.504Z,99248.31
2023-02-14T05:24:19.751Z,99248.31
2023-02-14T05:26:30.726Z,99249.22
2023-02-14T05:28:41.098Z,99250.94
2023-02-14T05:30:49.239Z,99250.00
2023-02-14T05:32:57.981Z,99246.63
2023-02-14T05:35:06.318Z,99248.31
2023-02-14T05:37:16.186Z,99243.94
2023-02-14T05:39:24.167Z,99243.88
2023-02-14T05:41:46.635Z,99249.06
2023-02-14T05:43:57.916Z,99239.63
2023-02-14T05:46:05.904Z,99253.53
2023-02-14T05:48:13.861Z,99253.53
2023-02-14T05:50:22.383Z,99255.22
2023-02-14T05:52:33.650Z,99263.94
2023-02-14T05:54:41.443Z,99257.03
2023-02-14T05:56:51.883Z,99263.09
2023-02-14T05:58:59.776Z,99260.47
2023-02-14T06:01:08.220Z,99267.31
2023-02-14T06:03:16.041Z,99268.13
2023-02-14T06:05:24.013Z,99263.81
2023-02-14T06:07:32.025Z,99264.66
2023-02-14T06:09:40.022Z,99261.19
2023-02-14T06:11:47.789Z,99264.66
2023-02-14T06:13:58.238Z,99269.06
2023-02-14T06:16:06.738Z,99276.75
2023-02-14T06:18:14.788Z,99274.91
2023-02-14T06:20:24.312Z,99275.78
2023-02-14T06:22:32.143Z,99276.69
2023-02-14T06:24:40.188Z,99276.81
2023-02-14T06:26:48.162Z,99273.22
2023-02-14T06:29:00.283Z,99275.91
2023-02-14T06:31:08.604Z,99276.75
2023-02-14T06:33:16.449Z,99271.50
2023-02-14T06:35:24.248Z,99282.94
2023-02-14T06:37:32.107Z,99273.53
2023-02-14T06:39:39.902Z,99286.44
2023-02-14T06:41:48.044Z,99287.50
2023-02-14T06:43:58.655Z,99288.28
2023-02-14T06:46:07.398Z,99290.78
2023-02-14T06:48:15.187Z,99296.00
2023-02-14T06:50:23.061Z,99298.75
2023-02-14T06:52:30.816Z,99289.19
2023-02-14T06:54:38.859Z,99297.84
2023-02-14T06:56:46.927Z,99293.53
2023-02-14T06:58:54.823Z,99302.31
2023-02-14T07:01:05.339Z,99295.38
2023-02-14T07:03:13.880Z,99303.25
2023-02-14T07:05:22.091Z,99295.47
2023-02-14T07:07:30.007Z,99295.53
2023-02-14T07:09:37.857Z,99294.66
2023-02-14T07:11:46.295Z,99297.28
2023-02-14T07:13:54.242Z,99298.09
2023-02-14T07:16:02.223Z,99298.03
2023-02-14T07:18:12.847Z,99302.34
2023-02-14T07:20:21.212Z,99300.59
2023-02-14T07:22:30.366Z,99305.03
2023-02-14T07:24:38.404Z,99303.25
2023-02-14T07:26:46.203Z,99311.13
2023-02-14T07:28:57.396Z,99311.31
2023-02-14T07:31:06.046Z,99313.19
2023-02-14T07:33:16.889Z,99311.66
2023-02-14T07:35:24.668Z,99315.09
2023-02-14T07:37:32.515Z,99311.53
2023-02-14T07:39:40.432Z,99318.59
2023-02-14T07:41:48.179Z,99310.81
2023-02-14T07:44:01.696Z,99310.84
2023-02-14T07:46:09.833Z,99319.56
2023-02-14T07:48:20.280Z,99321.28
2023-02-14T07:50:28.587Z,99319.69
2023-02-14T07:52:39.037Z,99315.41
2023-02-14T07:54:47.210Z,99323.28
2023-02-14T07:56:55.338Z,99310.31
2023-02-14T07:59:03.420Z,99316.50
2023-02-14T08:01:12.730Z,99318.22
2023-02-14T08:03:23.133Z,99320.00
2023-02-14T08:05:31.200Z,99320.03
2023-02-14T08:07:39.490Z,99317.50
2023-02-14T08:09:47.364Z,99320.16
2023-02-14T08:12:08.387Z,99327.97
2023-02-14T08:14:16.542Z,99321.00
2023-02-14T08:16:24.475Z,99326.25
2023-02-14T08:18:36.822Z,99337.53
2023-02-14T08:20:44.908Z,99332.34
2023-02-14T08:22:53.805Z,99339.31
2023-02-14T08:25:01.860Z,99336.72
2023-02-14T08:27:09.832Z,99335.81
2023-02-14T08:29:17.699Z,99340.19
2023-02-14T08:31:35.082Z,99347.13
2023-02-14T08:33:46.674Z,99345.38
2023-02-14T08:35:54.984Z,99341.91
2023-02-14T08:38:05.764Z,99343.63
2023-02-14T08:40:14.463Z,99341.00
2023-02-14T08:42:22.499Z,99337.53
2023-02-14T08:44:30.762Z,99340.16
2023-02-14T08:46:39.057Z,99330.56
2023-02-14T08:48:50.101Z,99334.97
2023-02-14T08:50:58.075Z,99341.09
2023-02-14T08:53:11.296Z,99342.81
2023-02-14T08:55:19.267Z,99328.88
2023-02-14T08:57:27.880Z,99345.47
2023-02-14T08:59:35.705Z,99339.34
2023-02-14T09:01:43.864Z,99344.59
2023-02-14T09:03:54.426Z,99349.81
2023-02-14T09:06:08.454Z,99354.19
2023-02-14T09:08:16.666Z,99352.44
2023-02-14T09:10:24.983Z,99354.19
2023-02-14T09:12:32.860Z,99360.28
2023-02-14T09:14:41.782Z,99362.91
2023-02-14T09:16:50.015Z,99361.09
2023-02-14T09:19:00.938Z,99356.72
2023-02-14T09:21:10.774Z,99354.91
2023-02-14T09:23:18.942Z,99355.69
2023-02-14T09:25:27.094Z,99360.84
2023-02-14T09:27:35.326Z,99357.97
2023-02-14T09:29:43.413Z,99363.22
2023-02-14T09:31:51.431Z,99358.97
2023-02-14T09:34:14.353Z,99358.63
2023-02-14T09:36:22.373Z,99364.13
2023-02-14T09:38:27.599Z,99368.25
2023-02-14T09:40:36.615Z,99366.88
2023-02-14T09:43:02.561Z,99395.66
2023-02-14T09:45:14.796Z,99415.56
2023-02-14T09:47:31.418Z,99439.44
2023-02-14T09:49:42.563Z,99426.84
2023-02-14T09:51:55.545Z,99432.19
2023-02-14T09:54:06.784Z,99451.69
2023-02-14T09:56:22.368Z,99459.72
2023-02-14T09:58:36.434Z,99466.63
2023-02-14T10:00:50.223Z,99481.88
2023-02-14T10:03:06.069Z,99475.34
2023-02-14T10:05:23.165Z,99469.09
2023-02-14T10:07:39.983Z,99463.09
2023-02-14T10:10:00.985Z,99455.88
2023-02-14T10:12:17.511Z,99477.88
2023-02-14T10:14:29.861Z,99476.88
2023-02-14T10:16:53.996Z,99454.91
2023-02-14T10:19:09.752Z,99447.00
2023-02-14T10:21:27.261Z,99429.56
2023-02-14T10:23:37.947Z,99417.03
2023-02-14T10:25:51.867Z,99420.63
2023-02-14T10:28:04.692Z,99422.16
2023-02-14T10:30:16.443Z,99413.78
2023-02-14T10:32:31.162Z,99413.09
2023-02-14T10:34:46.645Z,99412.91
2023-02-14T10:37:11.819Z,99421.47
2023-02-14T10:39:46.393Z,99431.78
2023-02-14T10:41:58.908Z,99428.84
2023-02-14T10:44:23.582Z,99417.66
2023-02-14T10:46:39.754Z,99422.09
2023-02-14T10:48:58.418Z,99410.56
2023-02-14T10:51:15.629Z,99402.94
2023-02-14T10:53:34.964Z,99412.03
2023-02-14T10:55:50.483Z,99391.78
2023-02-14T10:57:59.978Z,99380.91
2023-02-14T11:00:19.890Z,99374.19
2023-02-14T11:02:33.203Z,99387.28
2023-02-14T11:04:42.321Z,99399.28
2023-02-14T11:06:51.558Z,99390.38
2023-02-14T11:09:02.320Z,99377.06
2023-02-14T11:11:20.379Z,99344.63
2023-02-14T11:13:34.996Z,99327.06
2023-02-14T11:15:43.215Z,99313.44
2023-02-14T11:17:52.047Z,99296.81
2023-02-14T11:20:02.611Z,99278.94
2023-02-14T11:22:10.494Z,99269.03
2023-02-14T11:24:31.633Z,99260.56
2023-02-14T11:26:40.039Z,99272.97
2023-02-14T11:28:56.878Z,99272.94
2023-02-14T11:31:05.454Z,99273.50
2023-02-14T11:33:16.112Z,99269.97
2023-02-14T11:35:27.792Z,99271.03
2023-02-14T11:37:42.547Z,99267.66
2023-02-14T11:39:55.078Z,99261.56
2023-02-14T11:42:04.594Z,99259.84
2023-02-14T11:44:22.601Z,99245.28
2023-02-14T11:46:36.133Z,99254.59
2023-02-14T11:49:01.653Z,99239.84
2023-02-14T11:51:14.063Z,99247.59
2023-02-14T11:53:26.476Z,99236.09
2023-02-14T11:55:37.526Z,99232.97
2023-02-14T11:57:45.964Z,99226.63
2023-02-14T11:59:56.772Z,99219.72
2023-02-14T12:02:15.775Z,99219.16
2023-02-14T12:04:30.848Z,99215.16
2023-02-14T12:06:39.853Z,99223.91
2023-02-14T12:08:48.171Z,99220.94
2023-02-14T12:11:08.275Z,99216.81
2023-02-14T12:13:27.572Z,99215.31
2023-02-14T12:15:40.748Z,99205.63
2023-02-14T12:17:52.527Z,99213.59
2023-02-14T12:20:06.773Z,99198.53
2023-02-14T12:22:19.584Z,99205.28
2023-02-14T12:24:35.472Z,99199.53
2023-02-14T12:26:49.866Z,99195.41
2023-02-14T12:29:06.128Z,99193.09
2023-02-14T12:31:15.047Z,99193.56
2023-02-14T12:33:26.144Z,99182.97
2023-02-14T12:35:47.687Z,99190.41
2023-02-14T12:38:05.879Z,99189.56
2023-02-14T12:40:24.922Z,99185.91
2023-02-14T12:42:52.092Z,99180.25
2023-02-14T12:45:07.525Z,99183.47
2023-02-14T12:47:22.926Z,99176.22
2023-02-14T12:49:58.984Z,99176.75
2023-02-14T12:52:30.883Z,99175.78
2023-02-14T12:54:52.369Z,99174.88
2023-02-14T12:57:07.763Z,99167.38
2023-02-14T12:59:29.596Z,99170.81
2023-02-14T13:02:23.001Z,99173.53
2023-02-14T13:05:02.003Z,99169.69
2023-02-14T13:07:20.630Z,99161.28
2023-02-14T13:09:38.691Z,99157.19
2023-02-14T13:12:02.340Z,99158.75
2023-02-14T13:14:29.692Z,99163.13
2023-02-14T13:16:47.855Z,99158.41
2023-02-14T13:19:02.313Z,99154.53
2023-02-14T13:21:15.263Z,99148.06
2023-02-14T13:23:30.594Z,99144.38
2023-02-14T13:25:42.941Z,99137.19
2023-02-14T13:27:51.326Z,99138.63
2023-02-14T13:30:06.505Z,99139.78
2023-02-14T13:32:18.463Z,99137.78
2023-02-14T13:34:33.072Z,99136.09
2023-02-14T13:36:41.137Z,99137.81
2023-02-14T13:38:52.060Z,99132.31
2023-02-14T13:41:01.989Z,99128.13
2023-02-14T13:43:10.208Z,99129.16
2023-02-14T13:45:48.147Z,99120.91
2023-02-14T13:48:06.202Z,99130.34
2023-02-14T13:50:23.616Z,99120.03
2023-02-14T13:52:45.379Z,99116.50
2023-02-14T13:54:53.272Z,99114.22
2023-02-14T13:57:02.822Z,99111.53
2023-02-14T13:59:29.281Z,99115.25
2023-02-14T14:01:40.820Z,99109.19
2023-02-14T14:04:39.375Z,99110.00
2023-02-14T14:07:22.333Z,99105.38
2023-02-14T14:09:58.598Z,99106.97
2023-02-14T14:12:06.772Z,99104.69
2023-02-14T14:14:36.485Z,99096.13
2023-02-14T14:16:59.122Z,99110.34
2023-02-14T14:19:42.609Z,99104.63
2023-02-14T14:22:04.825Z,99096.81
2023-02-14T14:24:25.008Z,99097.53
2023-02-14T14:26:40.947Z,99101.13
2023-02-14T14:28:49.430Z,99089.88
2023-02-14T14:30:57.965Z,99090.50
2023-02-14T14:33:17.216Z,99089.75
2023-02-14T14:35:29.089Z,99087.16
2023-02-14T14:37:39.205Z,99082.66
2023-02-14T14:39:53.936Z,99084.56
2023-02-14T14:42:09.927Z,99083.72
2023-02-14T14:44:18.683Z,99081.78
2023-02-14T14:46:26.835Z,99078.25
2023-02-14T14:48:40.426Z,99077.31
2023-02-14T14:50:52.118Z,99073.19
2023-02-14T14:53:03.038Z,99070.59
2023-02-14T14:55:19.181Z,99071.41
2023-02-14T14:57:27.540Z,99077.03
2023-02-14T14:59:38.333Z,99078.00
2023-02-14T15:01:48.127Z,99074.66
2023-02-14T15:03:56.034Z,99073.00
2023-02-14T15:06:18.047Z,99063.34
2023-02-14T15:08:35.397Z,99070.06
2023-02-14T15:10:43.590Z,99070.34
2023-02-14T15:13:05.717Z,99071.78
2023-02-14T15:15:15.732Z,99076.31
2023-02-14T15:17:27.962Z,99071.34
2023-02-14T15:19:41.886Z,99073.41
2023-02-14T15:21:53.383Z,99079.78
2023-02-14T15:24:01.581Z,99075.13
2023-02-14T15:26:10.298Z,99068.97
2023-02-14T15:28:30.037Z,99074.34
2023-02-14T15:30:39.954Z,99076.38
2023-02-14T15:32:49.664Z,99076.44
2023-02-14T15:34:58.475Z,99073.28
2023-02-14T15:37:11.049Z,99067.47
2023-02-14T15:39:19.944Z,99072.78
2023-02-14T15:41:28.520Z,99060.06
2023-02-14T15:43:40.205Z,99069.59
2023-02-14T15:45:51.334Z,99061.47
2023-02-14T15:48:02.341Z,99063.38
2023-02-14T15:50:17.237Z,99060.75
2023-02-14T15:52:27.812Z,99068.25
2023-02-14T15:54:40.619Z,99058.88
2023-02-14T15:56:51.878Z,99057.22
2023-02-14T15:59:07.030Z,99059.22
2023-02-14T16:01:15.508Z,99060.44
2023-02-14T16:03:26.610Z,99065.53
2023-02-14T16:05:34.803Z,99062.53
2023-02-14T16:07:58.923Z,99063.69
2023-02-14T16:10:26.971Z,99062.34
2023-02-14T16:12:38.350Z,99061.75
2023-02-14T16:14:46.736Z,99064.63
2023-02-14T16:17:02.641Z,99070.59
2023-02-14T16:19:34.246Z,99067.53
2023-02-14T16:21:42.407Z,99066.06
2023-02-14T16:24:14.048Z,99062.06
2023-02-14T16:26:21.968Z,99065.06
2023-02-14T16:28:32.857Z,99065.13
2023-02-14T16:30:43.191Z,99063.66
2023-02-14T16:32:55.985Z,99060.44
2023-02-14T16:35:04.102Z,99063.09
2023-02-14T16:37:21.969Z,99062.44
2023-02-14T16:39:36.559Z,99060.84
2023-02-14T16:41:47.480Z,99057.44
2023-02-14T16:43:56.117Z,99061.28
2023-02-14T16:46:04.381Z,99068.56
2023-02-14T16:48:12.997Z,99067.88
2023-02-14T16:50:22.861Z,99065.53
2023-02-14T16:52:33.043Z,99060.47
2023-02-14T16:54:43.550Z,99062.53
2023-02-14T16:56:56.007Z,99060.03
2023-02-14T16:59:04.611Z,99069.16
2023-02-14T17:01:12.903Z,99070.97
2023-02-14T17:03:20.706Z,99064.81
2023-02-14T17:05:29.268Z,99076.16
2023-02-14T17:07:37.292Z,99066.78
2023-02-14T17:09:54.656Z,99074.06
2023-02-14T17:12:06.592Z,99080.38
2023-02-14T17:14:16.871Z,99076.28
2023-02-14T17:16:25.278Z,99079.84
2023-02-14T17:18:35.158Z,99079.22
2023-02-14T17:20:43.862Z,99075.75
2023-02-14T17:22:52.023Z,99075.84
2023-02-14T17:25:02.688Z,99079.53
2023-02-14T17:27:11.569Z,99076.94
2023-02-14T17:29:19.804Z,99076.94
2023-02-14T17:31:28.914Z,99077.97
2023-02-14T17:33:37.661Z,99088.63
2023-02-14T17:35:45.662Z,99075.59
2023-02-14T17:37:53.653Z,99068.66
2023-02-14T17:40:04.356Z,99066.91
2023-02-14T17:42:12.511Z,99063.50
2023-02-14T17:44:21.068Z,99072.41
2023-02-14T17:46:31.744Z,99064.66
2023-02-14T17:48:39.699Z,99078.78
2023-02-14T17:50:48.017Z,99067.56
2023-02-14T17:52:57.364Z,99061.53
2023-02-14T17:55:09.156Z,99058.91
2023-02-14T17:57:17.038Z,99063.25
2023-02-14T17:59:24.902Z,99056.47
2023-02-14T18:01:36.364Z,99059.91
2023-02-14T18:03:44.775Z,99066.78
2023-02-14T18:05:52.626Z,99067.72
2023-02-14T18:08:00.616Z,99063.34
2023-02-14T18:10:13.420Z,99065.22
2023-02-14T18:12:21.560Z,99059.19
2023-02-14T18:14:30.764Z,99060.09
2023-02-14T18:16:40.827Z,99060.13
2023-02-14T18:18:49.791Z,99057.59
2023-02-14T18:20:58.349Z,99059.31
2023-02-14T18:23:07.623Z,99053.22
2023-02-14T18:25:18.470Z,99057.81
2023-02-14T18:27:26.334Z,99061.19
2023-02-14T18:29:35.065Z,99060.38
2023-02-14T18:31:45.381Z,99052.50
2023-02-14T18:33:53.990Z,99043.13
2023-02-14T18:36:04.900Z,99047.56
2023-02-14T18:38:13.410Z,99033.53
2023-02-14T18:40:24.234Z,99032.69
2023-02-14T18:42:32.204Z,99034.41
2023-02-14T18:44:40.207Z,99038.88
2023-02-14T18:46:49.805Z,99038.03
2023-02-14T18:49:00.004Z,99033.72
2023-02-14T18:51:08.994Z,99029.38
2023-02-14T18:53:16.944Z,99023.28
2023-02-14T18:55:28.923Z,99030.28
2023-02-14T18:57:37.686Z,99022.38
2023-02-14T18:59:45.594Z,99023.34
2023-02-14T19:01:53.652Z,99017.22
2023-02-14T19:04:03.588Z,99016.41
2023-02-14T19:06:13.238Z,99009.44
2023-02-14T19:08:21.299Z,99009.44
2023-02-14T19:10:32.209Z,99007.75
2023-02-14T19:12:40.172Z,99004.19
2023-02-14T19:14:48.659Z,99004.22
2023-02-14T19:16:56.592Z,98998.22
2023-02-14T19:19:04.853Z,98997.47
2023-02-14T19:21:14.430Z,98989.72
2023-02-14T19:23:22.346Z,98993.25
2023-02-14T19:25:34.640Z,98992.34
2023-02-14T19:27:43.150Z,98992.38
2023-02-14T19:29:51.822Z,98990.63
2023-02-14T19:32:00.255Z,98987.19
2023-02-14T19:34:09.800Z,98980.28
2023-02-14T19:36:20.234Z,98978.56
2023-02-14T19:38:28.050Z,98977.72
2023-02-14T19:40:38.735Z,98969.81
2023-02-14T19:42:46.815Z,98973.34
2023-02-14T19:44:54.996Z,98969.06
2023-02-14T19:47:19.235Z,98968.22
2023-02-14T19:49:32.572Z,98963.88
2023-02-14T19:51:40.520Z,98955.97
2023-02-14T19:53:48.866Z,98961.22
2023-02-14T19:55:59.419Z,98957.72
2023-02-14T19:58:07.624Z,98955.97
2023-02-14T20:00:17.664Z,98956.03
2023-02-14T20:02:25.853Z,98950.78
2023-02-14T20:04:34.070Z,98946.50
2023-02-14T20:06:42.703Z,98952.59
2023-02-14T20:08:51.291Z,98949.97
2023-02-14T20:11:02.156Z,98958.44
2023-02-14T20:13:10.266Z,98954.16
2023-02-14T20:15:18.484Z,98954.19
2023-02-14T20:17:26.477Z,98956.88
2023-02-14T20:19:38.916Z,98950.75
2023-02-14T20:21:48.513Z,98954.28
2023-02-14T20:23:57.613Z,98948.03
2023-02-14T20:26:13.660Z,98953.22
2023-02-14T20:28:21.599Z,98954.19
2023-02-14T20:30:29.786Z,98956.00
2023-02-14T20:32:38.284Z,98950.81
2023-02-14T20:34:46.246Z,98944.78
2023-02-14T20:37:11.261Z,98936.97
2023-02-14T20:39:19.579Z,98940.56
2023-02-14T20:41:34.470Z,98944.13
2023-02-14T20:43:42.843Z,98932.00
2023-02-14T20:45:51.133Z,98927.75
2023-02-14T20:48:03.382Z,98917.31
2023-02-14T20:50:12.555Z,98910.38
2023-02-14T20:52:21.492Z,98918.22
2023-02-14T20:54:30.863Z,98916.16
2023-02-14T20:56:42.032Z,98919.75
2023-02-14T20:58:50.140Z,98919.66
2023-02-14T21:00:58.290Z,98913.53
2023-02-14T21:03:06.669Z,98915.28
2023-02-14T21:05:18.545Z,98907.44
2023-02-14T21:07:31.070Z,98903.09
2023-02-14T21:09:40.033Z,98901.41
2023-02-14T21:11:50.814Z,98900.50
2023-02-14T21:14:00.210Z,98889.03
2023-02-14T21:16:10.244Z,98889.91
2023-02-14T21:18:18.404Z,98893.38
2023-02-14T21:20:26.355Z,98890.88
2023-02-14T21:22:37.118Z,98890.13
2023-02-14T21:24:45.701Z,98889.25
2023-02-14T21:26:56.272Z,98884.00
2023-02-14T21:29:04.148Z,98881.31
2023-02-14T21:31:14.461Z,98883.94
2023-02-14T21:33:22.479Z,98885.66
2023-02-14T21:35:30.696Z,98884.84
2023-02-14T21:37:38.987Z,98878.88
2023-02-14T21:39:46.942Z,98879.88
2023-02-14T21:42:00.856Z,98881.75
2023-02-14T21:44:10.609Z,98878.41
2023-02-14T21:46:18.548Z,98869.78
2023-02-14T21:48:39.025Z,98878.59
2023-02-14T21:50:47.065Z,98869.91
2023-02-14T21:52:55.125Z,98868.19
2023-02-14T21:55:03.319Z,98860.38
2023-02-14T21:57:14.474Z,98863.91
2023-02-14T21:59:25.006Z,98855.19
2023-02-14T22:01:35.182Z,98854.34
2023-02-14T22:03:43.363Z,98854.31
2023-02-14T22:05:51.187Z,98855.25
2023-02-14T22:07:59.276Z,98857.03
2023-02-14T22:10:09.613Z,98858.81
2023-02-14T22:12:20.431Z,98857.09
2023-02-14T22:14:29.339Z,98848.38
2023-02-14T22:16:38.331Z,98843.13
2023-02-14T22:18:47.450Z,98846.69
2023-02-14T22:20:55.366Z,98846.69
2023-02-14T22:23:03.560Z,98845.84
2023-02-14T22:25:11.710Z,98853.72
2023-02-14T22:27:22.386Z,98847.66
2023-02-14T22:29:30.332Z,98840.66
2023-02-14T22:31:41.059Z,98847.59
2023-02-14T22:33:50.320Z,98848.44
2023-02-14T22:35:59.276Z,98842.38
2023-02-14T22:38:07.457Z,98849.34
2023-02-14T22:40:15.932Z,98845.81
2023-02-14T22:42:26.524Z,98846.69
2023-02-14T22:44:34.617Z,98850.22
2023-02-14T22:46:42.888Z,98849.41
2023-02-14T22:48:52.669Z,98851.16
2023-02-14T22:51:09.115Z,98851.22
2023-02-14T22:53:20.044Z,98851.22
2023-02-14T22:55:28.533Z,98847.72
2023-02-14T22:57:38.940Z,98845.13
2023-02-14T22:59:46.937Z,98838.19
2023-02-14T23:01:56.352Z,98840.78
2023-02-14T23:04:05.870Z,98839.81
2023-02-14T23:06:14.709Z,98839.81
2023-02-14T23:08:22.627Z,98832.69
2023-02-14T23:10:30.581Z,98833.50
2023-02-14T23:12:53.448Z,98831.78
2023-02-14T23:15:13.968Z,98828.31
2023-02-14T23:17:34.128Z,98834.41
2023-02-14T23:19:54.443Z,98835.22
2023-02-14T23:22:04.041Z,98835.22
2023-02-14T23:24:11.865Z,98839.53
2023-02-14T23:26:22.407Z,98843.00
2023-02-14T23:28:33.334Z,98844.75
2023-02-14T23:30:41.401Z,98848.28
2023-02-14T23:32:49.747Z,98843.97
2023-02-14T23:34:57.950Z,98849.19
2023-02-14T23:37:09.182Z,98844.81
2023-02-14T23:39:17.246Z,98834.34
2023-02-14T23:41:37.468Z,98850.91
2023-02-14T23:43:48.566Z,98848.34
2023-02-14T23:45:58.913Z,98852.66
2023-02-14T23:48:08.122Z,98848.31
2023-02-14T23:50:16.161Z,98849.22
2023-02-14T23:52:23.894Z,98853.59
2023-02-14T23:54:32.064Z,98844.06
2023-02-14T23:56:40.752Z,98837.97
2023-02-14T23:58:51.734Z,98834.44
